sensor_id;sensor_type;location;lat;lon;timestamp;P1;durP1;ratioP1;P2;durP2;ratioP2
11287;SDS011;5700;50.996;7.044;2022-08-07T00:01:16;1.85;;;0.93;;
11287;SDS011;5700;50.996;7.044;2022-08-07T00:04:18;1.63;;;1.10;;
11287;SDS011;5700;50.996;7.044;2022-08-07T00:07:19;2.20;;;0.95;;
11287;SDS011;5700;50.996;7.044;2022-08-07T00:10:22;3.00;;;1.15;;
11287;SDS011;5700;50.996;7.044;2022-08-07T00:13:23;1.85;;;1.13;;
11287;SDS011;5700;50.996;7.044;2022-08-07T00:16:25;0.88;;;0.80;;
11287;SDS011;5700;50.996;7.044;2022-08-07T00:19:26;1.58;;;0.93;;
11287;SDS011;5700;50.996;7.044;2022-08-07T00:22:30;1.80;;;1.00;;
11287;SDS011;5700;50.996;7.044;2022-08-07T00:25:33;0.88;;;0.70;;
11287;SDS011;5700;50.996;7.044;2022-08-07T00:28:34;2.33;;;1.08;;
11287;SDS011;5700;50.996;7.044;2022-08-07T00:31:36;0.98;;;0.70;;
11287;SDS011;5700;50.996;7.044;2022-08-07T00:34:38;1.20;;;0.80;;
11287;SDS011;5700;50.996;7.044;2022-08-07T00:37:39;2.22;;;1.00;;
11287;SDS011;5700;50.996;7.044;2022-08-07T00:40:42;3.22;;;1.00;;
11287;SDS011;5700;50.996;7.044;2022-08-07T00:43:43;1.80;;;1.00;;
11287;SDS011;5700;50.996;7.044;2022-08-07T00:46:45;1.17;;;0.73;;
11287;SDS011;5700;50.996;7.044;2022-08-07T00:49:46;2.30;;;1.10;;
11287;SDS011;5700;50.996;7.044;2022-08-07T00:52:48;2.45;;;1.13;;
11287;SDS011;5700;50.996;7.044;2022-08-07T00:55:51;1.65;;;0.90;;
11287;SDS011;5700;50.996;7.044;2022-08-07T00:58:52;0.80;;;0.80;;
11287;SDS011;5700;50.996;7.044;2022-08-07T01:01:53;1.58;;;0.80;;
11287;SDS011;5700;50.996;7.044;2022-08-07T01:04:55;2.45;;;0.98;;
11287;SDS011;5700;50.996;7.044;2022-08-07T01:07:57;1.52;;;0.80;;
11287;SDS011;5700;50.996;7.044;2022-08-07T01:11:00;1.55;;;0.80;;
11287;SDS011;5700;50.996;7.044;2022-08-07T01:14:01;0.85;;;0.63;;
11287;SDS011;5700;50.996;7.044;2022-08-07T01:17:03;5.38;;;1.35;;
11287;SDS011;5700;50.996;7.044;2022-08-07T01:20:06;2.03;;;1.10;;
11287;SDS011;5700;50.996;7.044;2022-08-07T01:23:10;3.58;;;1.13;;
11287;SDS011;5700;50.996;7.044;2022-08-07T01:26:13;2.25;;;0.93;;
11287;SDS011;5700;50.996;7.044;2022-08-07T01:29:15;1.77;;;0.75;;
11287;SDS011;5700;50.996;7.044;2022-08-07T01:32:16;2.67;;;1.35;;
11287;SDS011;5700;50.996;7.044;2022-08-07T01:35:18;3.55;;;1.10;;
11287;SDS011;5700;50.996;7.044;2022-08-07T01:38:21;1.60;;;1.00;;
11287;SDS011;5700;50.996;7.044;2022-08-07T01:41:23;2.00;;;1.17;;
11287;SDS011;5700;50.996;7.044;2022-08-07T01:44:25;1.80;;;1.10;;
11287;SDS011;5700;50.996;7.044;2022-08-07T01:47:27;1.63;;;1.08;;
11287;SDS011;5700;50.996;7.044;2022-08-07T01:50:28;2.05;;;0.98;;
11287;SDS011;5700;50.996;7.044;2022-08-07T01:53:32;1.60;;;1.20;;
11287;SDS011;5700;50.996;7.044;2022-08-07T01:56:35;2.30;;;1.20;;
11287;SDS011;5700;50.996;7.044;2022-08-07T01:59:42;3.40;;;1.17;;
11287;SDS011;5700;50.996;7.044;2022-08-07T02:02:48;2.10;;;0.95;;
11287;SDS011;5700;50.996;7.044;2022-08-07T02:05:54;1.35;;;0.90;;
11287;SDS011;5700;50.996;7.044;2022-08-07T02:08:59;1.42;;;1.15;;
11287;SDS011;5700;50.996;7.044;2022-08-07T02:12:03;2.17;;;1.08;;
11287;SDS011;5700;50.996;7.044;2022-08-07T02:15:17;3.40;;;1.30;;
11287;SDS011;5700;50.996;7.044;2022-08-07T02:18:21;2.83;;;1.00;;
11287;SDS011;5700;50.996;7.044;2022-08-07T02:21:23;1.33;;;0.90;;
11287;SDS011;5700;50.996;7.044;2022-08-07T02:24:26;4.15;;;1.10;;
11287;SDS011;5700;50.996;7.044;2022-08-07T02:27:28;2.72;;;1.00;;
11287;SDS011;5700;50.996;7.044;2022-08-07T02:30:30;2.75;;;0.90;;
11287;SDS011;5700;50.996;7.044;2022-08-07T02:33:32;2.40;;;0.93;;
11287;SDS011;5700;50.996;7.044;2022-08-07T02:36:34;1.67;;;1.10;;
11287;SDS011;5700;50.996;7.044;2022-08-07T02:39:39;2.03;;;1.13;;
11287;SDS011;5700;50.996;7.044;2022-08-07T02:42:41;1.88;;;1.02;;
11287;SDS011;5700;50.996;7.044;2022-08-07T02:45:43;1.67;;;1.20;;
11287;SDS011;5700;50.996;7.044;2022-08-07T02:48:46;3.53;;;1.25;;
11287;SDS011;5700;50.996;7.044;2022-08-07T02:51:47;2.95;;;1.27;;
11287;SDS011;5700;50.996;7.044;2022-08-07T02:54:51;2.05;;;1.10;;
11287;SDS011;5700;50.996;7.044;2022-08-07T02:57:54;2.63;;;1.20;;
11287;SDS011;5700;50.996;7.044;2022-08-07T03:00:58;1.85;;;1.20;;
11287;SDS011;5700;50.996;7.044;2022-08-07T03:04:00;2.35;;;1.42;;
11287;SDS011;5700;50.996;7.044;2022-08-07T03:07:02;2.13;;;1.20;;
11287;SDS011;5700;50.996;7.044;2022-08-07T03:10:05;3.15;;;1.35;;
11287;SDS011;5700;50.996;7.044;2022-08-07T03:13:08;2.60;;;1.35;;
11287;SDS011;5700;50.996;7.044;2022-08-07T03:16:10;3.88;;;1.35;;
11287;SDS011;5700;50.996;7.044;2022-08-07T03:19:11;2.75;;;1.48;;
11287;SDS011;5700;50.996;7.044;2022-08-07T03:22:13;4.32;;;1.63;;
11287;SDS011;5700;50.996;7.044;2022-08-07T03:25:16;3.92;;;1.40;;
11287;SDS011;5700;50.996;7.044;2022-08-07T03:28:17;1.92;;;1.15;;
11287;SDS011;5700;50.996;7.044;2022-08-07T03:31:20;3.30;;;1.48;;
11287;SDS011;5700;50.996;7.044;2022-08-07T03:34:22;1.85;;;1.30;;
11287;SDS011;5700;50.996;7.044;2022-08-07T03:37:25;2.88;;;1.40;;
11287;SDS011;5700;50.996;7.044;2022-08-07T03:40:28;1.80;;;1.10;;
11287;SDS011;5700;50.996;7.044;2022-08-07T03:43:30;3.20;;;1.60;;
11287;SDS011;5700;50.996;7.044;2022-08-07T03:46:32;2.25;;;1.23;;
11287;SDS011;5700;50.996;7.044;2022-08-07T03:49:34;2.97;;;1.25;;
11287;SDS011;5700;50.996;7.044;2022-08-07T03:52:36;1.75;;;1.13;;
11287;SDS011;5700;50.996;7.044;2022-08-07T03:55:39;3.03;;;1.58;;
11287;SDS011;5700;50.996;7.044;2022-08-07T03:58:40;3.00;;;1.45;;
11287;SDS011;5700;50.996;7.044;2022-08-07T04:01:43;3.65;;;1.40;;
11287;SDS011;5700;50.996;7.044;2022-08-07T04:04:46;2.50;;;1.40;;
11287;SDS011;5700;50.996;7.044;2022-08-07T04:07:47;2.25;;;1.30;;
11287;SDS011;5700;50.996;7.044;2022-08-07T04:10:50;1.83;;;1.20;;
11287;SDS011;5700;50.996;7.044;2022-08-07T04:13:52;1.75;;;1.10;;
11287;SDS011;5700;50.996;7.044;2022-08-07T04:16:54;3.05;;;1.45;;
11287;SDS011;5700;50.996;7.044;2022-08-07T04:19:55;2.15;;;1.42;;
11287;SDS011;5700;50.996;7.044;2022-08-07T04:22:57;1.73;;;1.10;;
11287;SDS011;5700;50.996;7.044;2022-08-07T04:26:00;2.75;;;1.63;;
11287;SDS011;5700;50.996;7.044;2022-08-07T04:29:02;3.20;;;1.52;;
11287;SDS011;5700;50.996;7.044;2022-08-07T04:32:04;2.10;;;1.30;;
11287;SDS011;5700;50.996;7.044;2022-08-07T04:35:07;3.08;;;1.45;;
11287;SDS011;5700;50.996;7.044;2022-08-07T04:38:09;1.70;;;1.23;;
11287;SDS011;5700;50.996;7.044;2022-08-07T04:41:12;3.60;;;1.45;;
11287;SDS011;5700;50.996;7.044;2022-08-07T04:44:14;2.17;;;1.40;;
11287;SDS011;5700;50.996;7.044;2022-08-07T04:47:18;2.78;;;1.40;;
11287;SDS011;5700;50.996;7.044;2022-08-07T04:50:25;2.10;;;1.27;;
11287;SDS011;5700;50.996;7.044;2022-08-07T04:53:33;1.67;;;1.20;;
11287;SDS011;5700;50.996;7.044;2022-08-07T04:56:43;3.03;;;1.20;;
11287;SDS011;5700;50.996;7.044;2022-08-07T04:59:48;2.83;;;1.20;;
11287;SDS011;5700;50.996;7.044;2022-08-07T05:02:55;1.95;;;1.30;;
11287;SDS011;5700;50.996;7.044;2022-08-07T05:06:01;2.05;;;1.10;;
11287;SDS011;5700;50.996;7.044;2022-08-07T05:09:07;1.95;;;1.02;;
11287;SDS011;5700;50.996;7.044;2022-08-07T05:12:13;3.83;;;1.40;;
11287;SDS011;5700;50.996;7.044;2022-08-07T05:15:18;1.63;;;1.20;;
11287;SDS011;5700;50.996;7.044;2022-08-07T05:18:21;5.05;;;1.10;;
11287;SDS011;5700;50.996;7.044;2022-08-07T05:21:26;1.23;;;1.10;;
11287;SDS011;5700;50.996;7.044;2022-08-07T05:24:30;1.77;;;1.08;;
11287;SDS011;5700;50.996;7.044;2022-08-07T05:27:33;2.17;;;1.08;;
11287;SDS011;5700;50.996;7.044;2022-08-07T05:30:34;1.98;;;1.20;;
11287;SDS011;5700;50.996;7.044;2022-08-07T05:33:36;1.92;;;1.08;;
11287;SDS011;5700;50.996;7.044;2022-08-07T05:36:39;1.80;;;1.20;;
11287;SDS011;5700;50.996;7.044;2022-08-07T05:39:42;2.35;;;1.17;;
11287;SDS011;5700;50.996;7.044;2022-08-07T05:42:45;3.00;;;1.10;;
11287;SDS011;5700;50.996;7.044;2022-08-07T05:45:47;2.28;;;1.40;;
11287;SDS011;5700;50.996;7.044;2022-08-07T05:48:49;2.55;;;1.30;;
11287;SDS011;5700;50.996;7.044;2022-08-07T05:51:52;2.60;;;1.27;;
11287;SDS011;5700;50.996;7.044;2022-08-07T05:54:53;3.30;;;1.25;;
11287;SDS011;5700;50.996;7.044;2022-08-07T05:57:56;1.70;;;1.02;;
11287;SDS011;5700;50.996;7.044;2022-08-07T06:00:58;3.20;;;1.20;;
11287;SDS011;5700;50.996;7.044;2022-08-07T06:04:00;1.73;;;1.35;;
11287;SDS011;5700;50.996;7.044;2022-08-07T06:07:04;6.40;;;1.38;;
11287;SDS011;5700;50.996;7.044;2022-08-07T06:10:05;1.60;;;1.15;;
11287;SDS011;5700;50.996;7.044;2022-08-07T06:13:10;2.00;;;1.05;;
11287;SDS011;5700;50.996;7.044;2022-08-07T06:16:12;1.67;;;1.20;;
11287;SDS011;5700;50.996;7.044;2022-08-07T06:19:15;3.00;;;1.30;;
11287;SDS011;5700;50.996;7.044;2022-08-07T06:22:17;2.38;;;1.08;;
11287;SDS011;5700;50.996;7.044;2022-08-07T06:25:19;2.30;;;1.10;;
11287;SDS011;5700;50.996;7.044;2022-08-07T06:28:23;2.08;;;1.08;;
11287;SDS011;5700;50.996;7.044;2022-08-07T06:31:25;1.30;;;0.80;;
11287;SDS011;5700;50.996;7.044;2022-08-07T06:34:26;1.55;;;1.02;;
11287;SDS011;5700;50.996;7.044;2022-08-07T06:37:28;1.20;;;0.80;;
11287;SDS011;5700;50.996;7.044;2022-08-07T06:40:30;1.42;;;1.00;;
11287;SDS011;5700;50.996;7.044;2022-08-07T06:43:36;1.60;;;0.70;;
11287;SDS011;5700;50.996;7.044;2022-08-07T06:46:39;1.63;;;0.70;;
11287;SDS011;5700;50.996;7.044;2022-08-07T06:49:40;0.70;;;0.70;;
11287;SDS011;5700;50.996;7.044;2022-08-07T06:52:43;1.73;;;0.85;;
11287;SDS011;5700;50.996;7.044;2022-08-07T06:55:47;0.80;;;0.70;;
11287;SDS011;5700;50.996;7.044;2022-08-07T06:58:51;0.73;;;0.57;;
11287;SDS011;5700;50.996;7.044;2022-08-07T07:01:52;1.33;;;0.65;;
11287;SDS011;5700;50.996;7.044;2022-08-07T07:04:55;1.10;;;0.70;;
11287;SDS011;5700;50.996;7.044;2022-08-07T07:07:57;1.02;;;0.63;;
11287;SDS011;5700;50.996;7.044;2022-08-07T07:10:58;1.02;;;0.68;;
11287;SDS011;5700;50.996;7.044;2022-08-07T07:14:01;1.38;;;0.80;;
11287;SDS011;5700;50.996;7.044;2022-08-07T07:17:05;3.40;;;1.05;;
11287;SDS011;5700;50.996;7.044;2022-08-07T07:20:12;1.63;;;0.70;;
11287;SDS011;5700;50.996;7.044;2022-08-07T07:23:16;1.50;;;0.70;;
11287;SDS011;5700;50.996;7.044;2022-08-07T07:26:19;1.55;;;0.63;;
11287;SDS011;5700;50.996;7.044;2022-08-07T07:29:25;1.35;;;0.60;;
11287;SDS011;5700;50.996;7.044;2022-08-07T07:32:28;1.35;;;0.63;;
11287;SDS011;5700;50.996;7.044;2022-08-07T07:35:32;1.05;;;0.50;;
11287;SDS011;5700;50.996;7.044;2022-08-07T07:38:34;2.90;;;0.60;;
11287;SDS011;5700;50.996;7.044;2022-08-07T07:41:35;1.45;;;0.73;;
11287;SDS011;5700;50.996;7.044;2022-08-07T07:44:40;0.60;;;0.60;;
11287;SDS011;5700;50.996;7.044;2022-08-07T07:47:42;0.43;;;0.40;;
11287;SDS011;5700;50.996;7.044;2022-08-07T07:50:44;1.20;;;0.50;;
11287;SDS011;5700;50.996;7.044;2022-08-07T07:53:47;1.02;;;0.50;;
11287;SDS011;5700;50.996;7.044;2022-08-07T07:56:49;4.85;;;0.52;;
11287;SDS011;5700;50.996;7.044;2022-08-07T07:59:53;0.50;;;0.43;;
11287;SDS011;5700;50.996;7.044;2022-08-07T08:02:56;0.90;;;0.50;;
11287;SDS011;5700;50.996;7.044;2022-08-07T08:05:59;0.82;;;0.50;;
11287;SDS011;5700;50.996;7.044;2022-08-07T08:09:02;1.40;;;0.38;;
11287;SDS011;5700;50.996;7.044;2022-08-07T08:12:04;3.25;;;0.50;;
11287;SDS011;5700;50.996;7.044;2022-08-07T08:15:08;2.30;;;0.40;;
11287;SDS011;5700;50.996;7.044;2022-08-07T08:18:10;4.95;;;0.70;;
11287;SDS011;5700;50.996;7.044;2022-08-07T08:21:13;3.05;;;0.47;;
11287;SDS011;5700;50.996;7.044;2022-08-07T08:24:30;1.25;;;0.55;;
11287;SDS011;5700;50.996;7.044;2022-08-07T08:27:48;1.90;;;0.65;;
11287;SDS011;5700;50.996;7.044;2022-08-07T08:30:53;1.27;;;0.60;;
11287;SDS011;5700;50.996;7.044;2022-08-07T08:33:56;2.78;;;0.80;;
11287;SDS011;5700;50.996;7.044;2022-08-07T08:36:59;0.80;;;0.50;;
11287;SDS011;5700;50.996;7.044;2022-08-07T08:40:05;0.68;;;0.52;;
11287;SDS011;5700;50.996;7.044;2022-08-07T08:43:09;0.75;;;0.55;;
11287;SDS011;5700;50.996;7.044;2022-08-07T08:46:17;0.50;;;0.50;;
11287;SDS011;5700;50.996;7.044;2022-08-07T08:49:23;1.50;;;0.52;;
11287;SDS011;5700;50.996;7.044;2022-08-07T08:52:28;0.50;;;0.40;;
11287;SDS011;5700;50.996;7.044;2022-08-07T08:55:36;1.65;;;0.60;;
11287;SDS011;5700;50.996;7.044;2022-08-07T08:58:42;0.32;;;0.30;;
11287;SDS011;5700;50.996;7.044;2022-08-07T09:01:53;0.63;;;0.50;;
11287;SDS011;5700;50.996;7.044;2022-08-07T09:04:59;1.95;;;0.40;;
11287;SDS011;5700;50.996;7.044;2022-08-07T09:08:16;1.88;;;0.40;;
11287;SDS011;5700;50.996;7.044;2022-08-07T09:11:23;0.60;;;0.40;;
11287;SDS011;5700;50.996;7.044;2022-08-07T09:14:33;0.68;;;0.40;;
11287;SDS011;5700;50.996;7.044;2022-08-07T09:17:40;0.32;;;0.30;;
11287;SDS011;5700;50.996;7.044;2022-08-07T09:20:49;1.05;;;0.40;;
11287;SDS011;5700;50.996;7.044;2022-08-07T09:23:58;1.00;;;0.47;;
11287;SDS011;5700;50.996;7.044;2022-08-07T09:27:08;0.30;;;0.30;;
11287;SDS011;5700;50.996;7.044;2022-08-07T09:30:19;0.30;;;0.30;;
11287;SDS011;5700;50.996;7.044;2022-08-07T09:33:34;1.65;;;0.40;;
11287;SDS011;5700;50.996;7.044;2022-08-07T09:36:47;1.95;;;0.47;;
11287;SDS011;5700;50.996;7.044;2022-08-07T09:39:57;0.52;;;0.38;;
11287;SDS011;5700;50.996;7.044;2022-08-07T09:43:06;0.32;;;0.32;;
11287;SDS011;5700;50.996;7.044;2022-08-07T09:46:27;0.70;;;0.55;;
11287;SDS011;5700;50.996;7.044;2022-08-07T09:49:41;1.55;;;0.55;;
11287;SDS011;5700;50.996;7.044;2022-08-07T09:52:50;1.45;;;0.50;;
11287;SDS011;5700;50.996;7.044;2022-08-07T09:55:59;2.08;;;0.60;;
11287;SDS011;5700;50.996;7.044;2022-08-07T09:59:12;0.70;;;0.40;;
11287;SDS011;5700;50.996;7.044;2022-08-07T10:02:36;0.32;;;0.32;;
11287;SDS011;5700;50.996;7.044;2022-08-07T10:05:50;0.43;;;0.43;;
11287;SDS011;5700;50.996;7.044;2022-08-07T10:09:02;0.60;;;0.40;;
11287;SDS011;5700;50.996;7.044;2022-08-07T10:12:11;0.60;;;0.43;;
11287;SDS011;5700;50.996;7.044;2022-08-07T10:15:20;1.20;;;0.40;;
11287;SDS011;5700;50.996;7.044;2022-08-07T10:18:33;2.22;;;0.40;;
11287;SDS011;5700;50.996;7.044;2022-08-07T10:21:43;0.65;;;0.30;;
11287;SDS011;5700;50.996;7.044;2022-08-07T10:24:53;0.75;;;0.40;;
11287;SDS011;5700;50.996;7.044;2022-08-07T10:28:16;0.30;;;0.30;;
11287;SDS011;5700;50.996;7.044;2022-08-07T10:31:37;1.17;;;0.30;;
11287;SDS011;5700;50.996;7.044;2022-08-07T10:34:51;1.23;;;0.40;;
11287;SDS011;5700;50.996;7.044;2022-08-07T10:38:05;0.22;;;0.22;;
11287;SDS011;5700;50.996;7.044;2022-08-07T10:41:13;1.30;;;0.30;;
11287;SDS011;5700;50.996;7.044;2022-08-07T10:44:18;0.85;;;0.40;;
11287;SDS011;5700;50.996;7.044;2022-08-07T10:47:23;0.43;;;0.40;;
11287;SDS011;5700;50.996;7.044;2022-08-07T10:50:33;1.65;;;0.38;;
11287;SDS011;5700;50.996;7.044;2022-08-07T10:53:45;1.55;;;0.40;;
11287;SDS011;5700;50.996;7.044;2022-08-07T10:56:52;0.82;;;0.50;;
11287;SDS011;5700;50.996;7.044;2022-08-07T11:00:03;0.70;;;0.50;;
11287;SDS011;5700;50.996;7.044;2022-08-07T11:03:09;1.55;;;0.40;;
11287;SDS011;5700;50.996;7.044;2022-08-07T11:06:15;2.13;;;0.38;;
11287;SDS011;5700;50.996;7.044;2022-08-07T11:09:23;1.45;;;0.32;;
11287;SDS011;5700;50.996;7.044;2022-08-07T11:12:27;1.38;;;0.40;;
11287;SDS011;5700;50.996;7.044;2022-08-07T11:15:34;0.20;;;0.20;;
11287;SDS011;5700;50.996;7.044;2022-08-07T11:18:41;1.27;;;0.40;;
11287;SDS011;5700;50.996;7.044;2022-08-07T11:21:49;1.08;;;0.43;;
11287;SDS011;5700;50.996;7.044;2022-08-07T11:24:58;1.05;;;0.40;;
11287;SDS011;5700;50.996;7.044;2022-08-07T11:28:05;0.38;;;0.30;;
11287;SDS011;5700;50.996;7.044;2022-08-07T11:31:12;0.63;;;0.30;;
11287;SDS011;5700;50.996;7.044;2022-08-07T11:34:21;0.28;;;0.20;;
11287;SDS011;5700;50.996;7.044;2022-08-07T11:37:32;2.45;;;0.40;;
11287;SDS011;5700;50.996;7.044;2022-08-07T11:40:45;0.63;;;0.50;;
11287;SDS011;5700;50.996;7.044;2022-08-07T11:43:51;1.25;;;0.40;;
11287;SDS011;5700;50.996;7.044;2022-08-07T11:47:00;1.60;;;0.30;;
11287;SDS011;5700;50.996;7.044;2022-08-07T11:50:10;1.17;;;0.57;;
11287;SDS011;5700;50.996;7.044;2022-08-07T11:53:18;0.52;;;0.40;;
11287;SDS011;5700;50.996;7.044;2022-08-07T11:56:35;0.55;;;0.40;;
11287;SDS011;5700;50.996;7.044;2022-08-07T11:59:55;1.30;;;0.38;;
11287;SDS011;5700;50.996;7.044;2022-08-07T12:06:36;0.25;;;0.20;;
11287;SDS011;5700;50.996;7.044;2022-08-07T12:09:47;0.25;;;0.25;;
11287;SDS011;5700;50.996;7.044;2022-08-07T12:12:52;0.65;;;0.40;;
11287;SDS011;5700;50.996;7.044;2022-08-07T12:15:58;1.70;;;0.38;;
11287;SDS011;5700;50.996;7.044;2022-08-07T12:19:04;1.45;;;0.40;;
11287;SDS011;5700;50.996;7.044;2022-08-07T12:22:18;0.40;;;0.28;;
11287;SDS011;5700;50.996;7.044;2022-08-07T12:25:24;0.93;;;0.30;;
11287;SDS011;5700;50.996;7.044;2022-08-07T12:28:46;0.30;;;0.30;;
11287;SDS011;5700;50.996;7.044;2022-08-07T12:31:55;0.40;;;0.30;;
11287;SDS011;5700;50.996;7.044;2022-08-07T12:34:58;1.10;;;0.40;;
11287;SDS011;5700;50.996;7.044;2022-08-07T12:38:03;1.10;;;0.30;;
11287;SDS011;5700;50.996;7.044;2022-08-07T12:41:05;0.60;;;0.40;;
11287;SDS011;5700;50.996;7.044;2022-08-07T12:44:09;0.50;;;0.40;;
11287;SDS011;5700;50.996;7.044;2022-08-07T12:47:14;0.85;;;0.38;;
11287;SDS011;5700;50.996;7.044;2022-08-07T12:50:25;0.47;;;0.30;;
11287;SDS011;5700;50.996;7.044;2022-08-07T12:53:32;2.25;;;0.45;;
11287;SDS011;5700;50.996;7.044;2022-08-07T12:56:38;0.30;;;0.28;;
11287;SDS011;5700;50.996;7.044;2022-08-07T12:59:44;0.55;;;0.40;;
11287;SDS011;5700;50.996;7.044;2022-08-07T13:02:57;1.88;;;0.55;;
11287;SDS011;5700;50.996;7.044;2022-08-07T13:06:06;0.30;;;0.30;;
11287;SDS011;5700;50.996;7.044;2022-08-07T13:09:16;0.30;;;0.30;;
11287;SDS011;5700;50.996;7.044;2022-08-07T13:12:25;0.40;;;0.30;;
11287;SDS011;5700;50.996;7.044;2022-08-07T13:15:35;2.55;;;0.40;;
11287;SDS011;5700;50.996;7.044;2022-08-07T13:18:48;0.90;;;0.30;;
11287;SDS011;5700;50.996;7.044;2022-08-07T13:21:54;0.63;;;0.40;;
11287;SDS011;5700;50.996;7.044;2022-08-07T13:25:00;1.15;;;0.30;;
11287;SDS011;5700;50.996;7.044;2022-08-07T13:28:05;1.77;;;0.43;;
11287;SDS011;5700;50.996;7.044;2022-08-07T13:31:15;1.65;;;0.35;;
11287;SDS011;5700;50.996;7.044;2022-08-07T13:34:22;0.55;;;0.35;;
11287;SDS011;5700;50.996;7.044;2022-08-07T13:37:27;0.85;;;0.30;;
11287;SDS011;5700;50.996;7.044;2022-08-07T13:40:33;0.68;;;0.30;;
11287;SDS011;5700;50.996;7.044;2022-08-07T13:43:40;1.65;;;0.40;;
11287;SDS011;5700;50.996;7.044;2022-08-07T13:46:44;1.27;;;0.38;;
11287;SDS011;5700;50.996;7.044;2022-08-07T13:49:46;0.50;;;0.32;;
11287;SDS011;5700;50.996;7.044;2022-08-07T13:52:48;0.43;;;0.32;;
11287;SDS011;5700;50.996;7.044;2022-08-07T13:55:50;0.75;;;0.47;;
11287;SDS011;5700;50.996;7.044;2022-08-07T13:58:53;0.25;;;0.25;;
11287;SDS011;5700;50.996;7.044;2022-08-07T14:02:04;2.75;;;0.38;;
11287;SDS011;5700;50.996;7.044;2022-08-07T14:05:12;1.58;;;0.30;;
11287;SDS011;5700;50.996;7.044;2022-08-07T14:08:15;0.20;;;0.20;;
11287;SDS011;5700;50.996;7.044;2022-08-07T14:11:17;1.73;;;0.32;;
11287;SDS011;5700;50.996;7.044;2022-08-07T14:14:21;1.90;;;0.47;;
11287;SDS011;5700;50.996;7.044;2022-08-07T14:17:32;0.22;;;0.22;;
11287;SDS011;5700;50.996;7.044;2022-08-07T14:20:35;0.68;;;0.35;;
11287;SDS011;5700;50.996;7.044;2022-08-07T14:23:37;2.83;;;0.93;;
11287;SDS011;5700;50.996;7.044;2022-08-07T14:26:42;0.60;;;0.30;;
11287;SDS011;5700;50.996;7.044;2022-08-07T14:29:46;0.30;;;0.30;;
11287;SDS011;5700;50.996;7.044;2022-08-07T14:32:53;1.08;;;0.30;;
11287;SDS011;5700;50.996;7.044;2022-08-07T14:35:56;0.80;;;0.30;;
11287;SDS011;5700;50.996;7.044;2022-08-07T14:38:59;0.93;;;0.52;;
11287;SDS011;5700;50.996;7.044;2022-08-07T14:42:02;0.60;;;0.50;;
11287;SDS011;5700;50.996;7.044;2022-08-07T14:45:04;0.32;;;0.30;;
11287;SDS011;5700;50.996;7.044;2022-08-07T14:48:08;2.08;;;0.50;;
11287;SDS011;5700;50.996;7.044;2022-08-07T14:51:11;2.13;;;0.40;;
11287;SDS011;5700;50.996;7.044;2022-08-07T14:54:19;0.60;;;0.38;;
11287;SDS011;5700;50.996;7.044;2022-08-07T14:57:21;0.50;;;0.40;;
11287;SDS011;5700;50.996;7.044;2022-08-07T15:00:25;0.60;;;0.52;;
11287;SDS011;5700;50.996;7.044;2022-08-07T15:03:29;1.95;;;0.50;;
11287;SDS011;5700;50.996;7.044;2022-08-07T15:06:33;0.77;;;0.52;;
11287;SDS011;5700;50.996;7.044;2022-08-07T15:09:38;0.65;;;0.30;;
11287;SDS011;5700;50.996;7.044;2022-08-07T15:12:41;1.40;;;0.40;;
11287;SDS011;5700;50.996;7.044;2022-08-07T15:15:44;1.58;;;0.68;;
11287;SDS011;5700;50.996;7.044;2022-08-07T15:18:49;0.57;;;0.50;;
11287;SDS011;5700;50.996;7.044;2022-08-07T15:21:55;0.30;;;0.20;;
11287;SDS011;5700;50.996;7.044;2022-08-07T15:24:59;5.05;;;0.50;;
11287;SDS011;5700;50.996;7.044;2022-08-07T15:28:04;4.95;;;0.52;;
11287;SDS011;5700;50.996;7.044;2022-08-07T15:31:08;1.08;;;0.40;;
11287;SDS011;5700;50.996;7.044;2022-08-07T15:34:12;1.85;;;0.50;;
11287;SDS011;5700;50.996;7.044;2022-08-07T15:37:14;0.65;;;0.43;;
11287;SDS011;5700;50.996;7.044;2022-08-07T15:40:17;1.00;;;0.40;;
11287;SDS011;5700;50.996;7.044;2022-08-07T15:43:20;0.30;;;0.30;;
11287;SDS011;5700;50.996;7.044;2022-08-07T15:46:24;1.65;;;0.47;;
11287;SDS011;5700;50.996;7.044;2022-08-07T15:49:28;0.65;;;0.40;;
11287;SDS011;5700;50.996;7.044;2022-08-07T15:52:33;2.42;;;0.50;;
11287;SDS011;5700;50.996;7.044;2022-08-07T15:55:38;0.70;;;0.40;;
11287;SDS011;5700;50.996;7.044;2022-08-07T15:58:48;1.85;;;0.40;;
11287;SDS011;5700;50.996;7.044;2022-08-07T16:01:52;0.68;;;0.30;;
11287;SDS011;5700;50.996;7.044;2022-08-07T16:04:56;2.03;;;0.60;;
11287;SDS011;5700;50.996;7.044;2022-08-07T16:08:02;2.15;;;0.52;;
11287;SDS011;5700;50.996;7.044;2022-08-07T16:11:05;0.50;;;0.40;;
11287;SDS011;5700;50.996;7.044;2022-08-07T16:14:12;2.20;;;0.45;;
11287;SDS011;5700;50.996;7.044;2022-08-07T16:17:18;2.42;;;0.40;;
11287;SDS011;5700;50.996;7.044;2022-08-07T16:20:37;0.60;;;0.40;;
11287;SDS011;5700;50.996;7.044;2022-08-07T16:23:44;1.50;;;0.57;;
11287;SDS011;5700;50.996;7.044;2022-08-07T16:26:55;2.10;;;0.50;;
11287;SDS011;5700;50.996;7.044;2022-08-07T16:30:03;0.80;;;0.50;;
11287;SDS011;5700;50.996;7.044;2022-08-07T16:33:07;1.98;;;0.70;;
11287;SDS011;5700;50.996;7.044;2022-08-07T16:36:17;3.10;;;0.70;;
11287;SDS011;5700;50.996;7.044;2022-08-07T16:39:26;1.00;;;0.50;;
11287;SDS011;5700;50.996;7.044;2022-08-07T16:42:34;2.45;;;1.08;;
11287;SDS011;5700;50.996;7.044;2022-08-07T16:45:50;2.88;;;0.50;;
11287;SDS011;5700;50.996;7.044;2022-08-07T16:49:07;1.00;;;0.35;;
11287;SDS011;5700;50.996;7.044;2022-08-07T16:52:22;0.73;;;0.50;;
11287;SDS011;5700;50.996;7.044;2022-08-07T16:55:34;1.48;;;0.55;;
11287;SDS011;5700;50.996;7.044;2022-08-07T16:58:43;0.75;;;0.55;;
11287;SDS011;5700;50.996;7.044;2022-08-07T17:01:58;2.05;;;0.40;;
11287;SDS011;5700;50.996;7.044;2022-08-07T17:05:04;0.60;;;0.40;;
11287;SDS011;5700;50.996;7.044;2022-08-07T17:08:11;0.82;;;0.30;;
11287;SDS011;5700;50.996;7.044;2022-08-07T17:11:21;1.65;;;0.50;;
11287;SDS011;5700;50.996;7.044;2022-08-07T17:14:31;0.77;;;0.50;;
11287;SDS011;5700;50.996;7.044;2022-08-07T17:17:37;0.40;;;0.40;;
11287;SDS011;5700;50.996;7.044;2022-08-07T17:20:43;0.68;;;0.55;;
11287;SDS011;5700;50.996;7.044;2022-08-07T17:23:52;1.08;;;0.40;;
11287;SDS011;5700;50.996;7.044;2022-08-07T17:26:57;1.02;;;0.32;;
11287;SDS011;5700;50.996;7.044;2022-08-07T17:30:02;0.90;;;0.45;;
11287;SDS011;5700;50.996;7.044;2022-08-07T17:33:08;3.45;;;0.77;;
11287;SDS011;5700;50.996;7.044;2022-08-07T17:36:15;1.67;;;0.40;;
11287;SDS011;5700;50.996;7.044;2022-08-07T17:39:20;0.88;;;0.60;;
11287;SDS011;5700;50.996;7.044;2022-08-07T17:42:27;1.20;;;0.60;;
11287;SDS011;5700;50.996;7.044;2022-08-07T17:45:35;0.45;;;0.35;;
11287;SDS011;5700;50.996;7.044;2022-08-07T17:48:43;0.57;;;0.45;;
11287;SDS011;5700;50.996;7.044;2022-08-07T17:51:50;0.88;;;0.30;;
11287;SDS011;5700;50.996;7.044;2022-08-07T17:55:01;1.05;;;0.40;;
11287;SDS011;5700;50.996;7.044;2022-08-07T17:58:06;0.45;;;0.40;;
11287;SDS011;5700;50.996;7.044;2022-08-07T18:01:12;0.50;;;0.45;;
11287;SDS011;5700;50.996;7.044;2022-08-07T18:04:22;0.50;;;0.47;;
11287;SDS011;5700;50.996;7.044;2022-08-07T18:07:30;1.17;;;0.45;;
11287;SDS011;5700;50.996;7.044;2022-08-07T18:10:42;0.68;;;0.40;;
11287;SDS011;5700;50.996;7.044;2022-08-07T18:13:50;0.40;;;0.30;;
11287;SDS011;5700;50.996;7.044;2022-08-07T18:16:56;1.67;;;0.50;;
11287;SDS011;5700;50.996;7.044;2022-08-07T18:20:01;2.08;;;1.05;;
11287;SDS011;5700;50.996;7.044;2022-08-07T18:23:05;0.73;;;0.40;;
11287;SDS011;5700;50.996;7.044;2022-08-07T18:26:11;3.10;;;0.50;;
11287;SDS011;5700;50.996;7.044;2022-08-07T18:29:16;0.30;;;0.30;;
11287;SDS011;5700;50.996;7.044;2022-08-07T18:32:24;1.10;;;0.38;;
11287;SDS011;5700;50.996;7.044;2022-08-07T18:35:49;0.80;;;0.50;;
11287;SDS011;5700;50.996;7.044;2022-08-07T18:39:00;2.80;;;0.77;;
11287;SDS011;5700;50.996;7.044;2022-08-07T18:42:11;1.65;;;0.65;;
11287;SDS011;5700;50.996;7.044;2022-08-07T18:45:19;0.75;;;0.43;;
11287;SDS011;5700;50.996;7.044;2022-08-07T18:48:25;2.25;;;0.40;;
11287;SDS011;5700;50.996;7.044;2022-08-07T18:51:32;1.00;;;0.65;;
11287;SDS011;5700;50.996;7.044;2022-08-07T18:54:38;0.45;;;0.30;;
11287;SDS011;5700;50.996;7.044;2022-08-07T18:57:47;0.80;;;0.50;;